This is the latest recevied weather packets stored in our database for station/object OK1PHM-12. If no packets are shown the sender has not sent any weather packets the latest 10 day(s).
| Time | Temp. | Humidity | Pressure | Rain* | Wind** | Luminosity | Snow |
|---|---|---|---|---|---|---|---|
| 1777655189 | 20.56° C | 37% | 1026.1 hPa | - | - | - | - |
| 1777654288 | 21.11° C | 37% | 1026.3 hPa | - | - | - | - |
| 1777653387 | 21.11° C | 36% | 1026.3 hPa | - | - | - | - |
| 1777652487 | 21.11° C | 34% | 1026.4 hPa | - | - | - | - |
| 1777651586 | 21.67° C | 34% | 1026.5 hPa | - | - | - | - |
| 1777650685 | 21.67° C | 35% | 1026.6 hPa | - | - | - | - |
| 1777647082 | 21.67° C | 34% | 1026.9 hPa | - | - | - | - |
| 1777646181 | 21.67° C | 36% | 1027.1 hPa | - | - | - | - |
| 1777645280 | 21.67° C | 35% | 1027.2 hPa | - | - | - | - |
| 1777644380 | 21.67° C | 33% | 1027.5 hPa | - | - | - | - |
| 1777643479 | 22.22° C | 35% | 1027.6 hPa | - | - | - | - |
| 1777642578 | 22.22° C | 34% | 1027.6 hPa | - | - | - | - |
| 1777641677 | 23.89° C | 31% | 1027.9 hPa | - | - | - | - |
| 1777640776 | 22.78° C | 33% | 1028 hPa | - | - | - | - |
| 1777639875 | 22.78° C | 33% | 1028.1 hPa | - | - | - | - |
| 1777638974 | 23.33° C | 31% | 1028.5 hPa | - | - | - | - |
| 1777638074 | 22.78° C | 33% | 1028.5 hPa | - | - | - | - |
| 1777637173 | 22.78° C | 32% | 1028.6 hPa | - | - | - | - |
| 1777636272 | 22.22° C | 32% | 1028.8 hPa | - | - | - | - |
| 1777635371 | 22.78° C | 31% | 1028.8 hPa | - | - | - | - |
| 1777634470 | 22.78° C | 31% | 1029.1 hPa | - | - | - | - |
| 1777633570 | 22.22° C | 34% | 1029.2 hPa | - | - | - | - |
| 1777632668 | 22.22° C | 32% | 1029.5 hPa | - | - | - | - |
| 1777630866 | 21.11° C | 36% | 1029.7 hPa | - | - | - | - |
| 1777629965 | 22.78° C | 33% | 1029.8 hPa | - | - | - | - |
* Rain since midnight (hover to see other rain measurements)
** Current wind speed in m/s (hover to see current wind gust speed)